carandclassic.co.uk alexa rank chart, carandclassic.co.uk alexa rank daily changes

carandclassic.co.uk alexa rank chart, carandclassic.co.uk alexa rank daily changes

carandclassic.co.uk
Actual rank:
31 849

RANK HISTORY

Date Rank Diff
2019/01/22 31 849 -1 160
2019/01/21 33 009 +463
2019/01/20 32 546 -18 490
2019/01/19 51 036 -13 324
2019/01/18 64 360 +30 147
2019/01/17 34 213 -76 316
2019/01/16 110 529 +61 415
2019/01/15 49 114 +19 240
2019/01/14 29 874 -4 394
2019/01/13 34 268 -12 267
2019/01/12 46 535 +7 545
2019/01/11 38 990 -10 300
2019/01/10 49 290 -16 373
2019/01/09 65 663 +31 027
2019/01/08 34 636 -23 197
2019/01/07 57 833 +9 234
2019/01/06 48 599 +6 691
2019/01/05 41 908 +7 214
2019/01/04 34 694 -163
2019/01/03 34 857 +8 119
2019/01/02 26 738 -1 291
2019/01/01 28 029 -1 616
2018/12/31 29 645 -6 008
2018/12/30 35 653 +1 318
2018/12/29 34 335 +1 118
2018/12/28 33 217 -49 511
2018/12/27 82 728 +61 487
2018/12/26 21 241 -14 805
2018/12/25 36 046 -2 415
2018/12/24 38 461 -1 955
2018/12/23 40 416 -2 716
2018/12/22 43 132 -1 323
2018/12/21 44 455 +6 654
2018/12/20 37 801 -476
2018/12/19 38 277 +2 816
2018/12/18 35 461 -13 162
2018/12/17 48 623 +13 538
2018/12/16 35 085 -7 466
2018/12/15 42 551 -12 022
2018/12/14 54 573 -5 740
2018/12/13 60 313 +7 441
2018/12/12 52 872 +13 596
2018/12/11 39 276 -10 111
2018/12/10 49 387 +14 758
2018/12/09 34 629 -2 899
2018/12/08 37 528 -6 405
2018/12/07 43 933 -10 484
2018/12/06 54 417 +4 711
2018/12/05 49 706 +5 202
2018/12/04 44 504 +11 019
2018/12/03 33 485 -3 290
2018/12/02 36 775 -9 798
2018/12/01 46 573 +13 553
2018/11/30 33 020 -12 295
2018/11/29 45 315 -9 607
2018/11/28 54 922 +16 930
2018/11/27 37 992 +11 555
2018/11/26 26 437 -1 559
2018/11/25 27 996 -8 866
2018/11/24 36 862 +4 444
2018/11/23 32 418

WIDGET FOR YOUR SITE

DOMAINS WITH THE NEAREST RANK

Domain Rank
aphrodite1994.com 31 844
timeincapp.com 31 845
torontopubliclibrary.ca 31 846
sportpesa.co.tz 31 847
humankinetics.com 31 848
carandclassic.co.uk 31 849
touying.com 31 850
big5sportinggoods.com 31 851
sledujufilmy.cz 31 852
magnetfox.org 31 853
getsportscore.com 31 854

DOMAINS WITH THE NEAREST RANK BY TLD .co.uk

Domain Rank
schuh.co.uk 31 136
thecompleteuniversityguide.co.uk 31 225
wiggle.co.uk 31 373
hobbs.co.uk 31 412
123-reg.co.uk 31 829
carandclassic.co.uk 31 849
volkswagen.co.uk 32 312
designingbuildings.co.uk 32 584
boden.co.uk 32 780
primaryhomeworkhelp.co.uk 32 855
co-operativebank.co.uk 32 939